createdAt,value
2023-08-16T00:37:57.267Z,21.00
2023-08-16T00:40:49.617Z,21.00
2023-08-16T00:43:51.271Z,20.90
2023-08-16T00:47:02.756Z,21.00
2023-08-16T00:54:06.730Z,20.90
2023-08-16T00:56:39.179Z,20.80
2023-08-16T00:59:14.656Z,20.70
2023-08-16T01:13:17.752Z,20.80
2023-08-16T01:16:30.385Z,20.40
2023-08-16T01:19:38.331Z,20.70
2023-08-16T01:22:42.430Z,20.80
2023-08-16T01:26:08.831Z,20.70
2023-08-16T01:38:36.623Z,20.70
2023-08-16T01:41:27.713Z,20.60
2023-08-16T01:44:15.221Z,20.60
2023-08-16T01:51:02.898Z,20.50
2023-08-16T02:00:32.065Z,20.30
2023-08-16T02:07:45.179Z,20.30
2023-08-16T02:10:39.747Z,19.60
2023-08-16T04:44:46.419Z,19.90
2023-08-16T04:47:59.534Z,20.10
2023-08-16T04:54:22.720Z,19.20
2023-08-16T04:57:37.504Z,20.20
2023-08-16T05:00:30.343Z,20.30
2023-08-16T05:04:00.745Z,20.40
2023-08-16T06:44:02.759Z,24.40
2023-08-16T06:46:31.673Z,24.60
2023-08-16T06:49:01.848Z,24.80
2023-08-16T06:51:31.700Z,25.20
2023-08-16T06:54:00.400Z,24.60
2023-08-16T06:56:30.505Z,25.40
2023-08-16T06:59:00.920Z,25.30
2023-08-16T07:01:33.055Z,25.90
2023-08-16T07:04:05.262Z,26.10
2023-08-16T07:06:47.468Z,26.30
2023-08-16T07:09:38.829Z,26.40
2023-08-16T12:07:03.196Z,36.90
2023-08-16T12:09:41.246Z,37.50
2023-08-16T12:12:11.438Z,37.40
2023-08-16T12:14:43.570Z,38.20
2023-08-16T12:17:12.434Z,38.30
2023-08-16T12:19:42.246Z,38.40
2023-08-16T12:22:12.962Z,38.40
2023-08-16T12:24:42.003Z,38.40
2023-08-16T12:27:10.969Z,38.40
2023-08-16T12:29:41.506Z,38.10
2023-08-16T12:32:10.475Z,38.90
2023-08-16T12:34:47.838Z,39.00
2023-08-16T12:37:30.201Z,38.90
2023-08-16T12:39:59.342Z,38.90
2023-08-16T12:42:29.229Z,39.00
2023-08-16T12:44:58.629Z,38.80
2023-08-16T12:47:29.919Z,38.60
2023-08-16T12:50:00.668Z,38.80
2023-08-16T12:52:31.071Z,39.10
2023-08-16T12:54:59.916Z,39.20
2023-08-16T12:57:38.166Z,38.70
2023-08-16T13:00:13.402Z,38.80
2023-08-16T13:05:33.288Z,38.80
2023-08-16T13:08:05.101Z,39.20
2023-08-16T13:10:38.444Z,39.50
2023-08-16T13:13:31.833Z,39.40
2023-08-16T13:21:19.072Z,39.30
2023-08-16T13:24:08.118Z,39.00
2023-08-16T13:27:01.109Z,39.50
2023-08-16T13:29:34.360Z,39.70
2023-08-16T13:42:56.029Z,39.80
2023-08-16T13:45:25.424Z,40.50
2023-08-16T13:47:54.753Z,40.40
2023-08-16T13:50:25.556Z,40.10
2023-08-16T13:52:55.072Z,40.30
2023-08-16T13:55:27.687Z,40.60
2023-08-16T13:57:56.917Z,40.60
2023-08-16T14:00:25.988Z,40.70
2023-08-16T14:02:56.998Z,40.70
2023-08-16T14:05:26.584Z,41.00
2023-08-16T14:07:55.410Z,40.30
2023-08-16T14:10:26.168Z,40.40
2023-08-16T14:13:05.212Z,40.70
2023-08-16T14:15:34.800Z,40.40
2023-08-16T14:18:03.542Z,39.90
2023-08-16T14:20:32.174Z,40.60
2023-08-16T14:23:01.370Z,41.30
2023-08-16T14:25:34.545Z,41.40
2023-08-16T14:28:06.150Z,41.20
2023-08-16T14:30:34.703Z,40.80
2023-08-16T14:33:03.368Z,41.40
2023-08-16T14:35:32.267Z,41.60
2023-08-16T14:38:02.945Z,41.60
2023-08-16T14:40:33.520Z,42.00
2023-08-16T14:43:02.767Z,42.20
2023-08-16T14:45:32.110Z,41.50
2023-08-16T14:48:02.387Z,42.10
2023-08-16T14:50:30.954Z,42.10
2023-08-16T14:52:59.539Z,41.90
2023-08-16T14:55:28.375Z,42.00
2023-08-16T14:58:06.466Z,42.20
2023-08-16T15:00:35.628Z,42.10
2023-08-16T15:03:05.801Z,42.10
2023-08-16T15:05:35.686Z,42.00
2023-08-16T15:08:04.887Z,41.60
2023-08-16T15:10:33.785Z,41.10
2023-08-16T15:13:04.385Z,40.80
2023-08-16T15:15:36.312Z,40.30
2023-08-16T15:18:05.656Z,40.90
2023-08-16T15:20:34.576Z,40.70
2023-08-16T15:23:04.132Z,41.30
2023-08-16T15:25:33.014Z,41.30
2023-08-16T15:28:01.616Z,39.70
2023-08-16T15:30:31.937Z,40.10
2023-08-16T15:33:00.673Z,39.90
2023-08-16T15:35:29.654Z,39.10
2023-08-16T15:37:58.207Z,38.70
2023-08-16T15:40:27.208Z,37.50
2023-08-16T15:42:56.098Z,37.80
2023-08-16T15:45:24.894Z,37.10
2023-08-16T15:47:55.442Z,36.70
2023-08-16T15:50:24.349Z,36.10
2023-08-16T15:52:52.996Z,36.20
2023-08-16T15:55:21.768Z,35.90
2023-08-16T15:57:52.960Z,35.50
2023-08-16T16:00:23.385Z,35.20
2023-08-16T16:02:52.125Z,35.10
2023-08-16T16:05:22.970Z,34.50
2023-08-16T16:07:52.736Z,33.60
2023-08-16T16:10:21.714Z,33.10
2023-08-16T16:12:50.812Z,33.00
2023-08-16T16:15:20.898Z,32.40
2023-08-16T16:17:52.369Z,31.80
2023-08-16T16:20:23.100Z,31.70
2023-08-16T16:22:55.570Z,31.40
2023-08-16T16:25:25.261Z,31.10
2023-08-16T16:27:55.527Z,31.30
2023-08-16T16:30:31.786Z,30.90
2023-08-16T16:33:03.793Z,30.20
2023-08-16T16:35:34.236Z,30.10
2023-08-16T16:38:03.154Z,30.10
2023-08-16T16:40:35.426Z,29.80
2023-08-16T16:43:04.555Z,30.20
2023-08-16T16:45:33.752Z,29.80
2023-08-16T16:48:02.507Z,29.70
2023-08-16T16:50:31.456Z,29.20
2023-08-16T16:53:01.931Z,29.90
2023-08-16T16:55:30.932Z,29.70
2023-08-16T16:58:00.580Z,29.60
2023-08-16T17:00:29.187Z,29.50
2023-08-16T17:03:01.864Z,29.30
2023-08-16T17:05:31.261Z,29.30
2023-08-16T17:08:01.512Z,29.20
2023-08-16T17:10:30.385Z,29.20
2023-08-16T17:12:59.299Z,29.00
2023-08-16T17:15:29.125Z,29.00
2023-08-16T17:17:57.875Z,28.90
2023-08-16T17:20:26.499Z,28.80
2023-08-16T17:22:56.664Z,28.60
2023-08-16T17:25:27.052Z,28.50
2023-08-16T17:27:58.398Z,28.40
2023-08-16T17:30:27.470Z,28.30
2023-08-16T17:32:57.032Z,28.30
2023-08-16T17:35:25.720Z,28.20
2023-08-16T17:37:54.832Z,28.20
2023-08-16T17:40:23.616Z,28.10
2023-08-16T17:42:53.911Z,28.00
2023-08-16T17:45:22.577Z,28.00
2023-08-16T17:47:51.625Z,26.20
2023-08-16T17:50:21.396Z,27.90
2023-08-16T17:52:49.983Z,27.80
2023-08-16T17:55:18.608Z,27.30
2023-08-16T17:57:47.651Z,27.30
2023-08-16T18:00:47.002Z,27.10
2023-08-16T18:03:21.043Z,26.70
2023-08-16T18:05:52.208Z,27.10
2023-08-16T18:08:23.060Z,26.70
2023-08-16T18:10:55.872Z,26.70
2023-08-16T18:13:26.156Z,26.30
2023-08-16T18:15:56.266Z,26.00
2023-08-16T18:18:27.234Z,26.00
2023-08-16T18:20:59.831Z,26.20
2023-08-16T18:23:28.907Z,26.00
2023-08-16T18:26:49.323Z,26.60
2023-08-16T18:29:23.403Z,26.50
2023-08-16T18:31:57.629Z,27.00
2023-08-16T18:34:28.241Z,27.10
2023-08-16T18:36:57.870Z,27.10
2023-08-16T18:39:26.749Z,26.80
2023-08-16T18:41:58.536Z,27.00
2023-08-16T18:44:28.062Z,27.10
2023-08-16T18:49:51.338Z,27.30
2023-08-16T19:04:50.811Z,27.00
2023-08-16T19:07:19.596Z,26.90
2023-08-16T21:20:59.104Z,24.10
